sensor_id;sensor_type;location;lat;lon;timestamp;temperature;humidity
16829;DHT22;8531;48.078;11.968;2023-12-20T00:00:26;5.50;99.90
16829;DHT22;8531;48.078;11.968;2023-12-20T00:02:51;5.50;99.90
16829;DHT22;8531;48.078;11.968;2023-12-20T00:05:17;5.50;99.90
16829;DHT22;8531;48.078;11.968;2023-12-20T00:07:43;5.40;99.90
16829;DHT22;8531;48.078;11.968;2023-12-20T00:10:09;5.30;99.90
16829;DHT22;8531;48.078;11.968;2023-12-20T00:12:34;5.30;99.90
16829;DHT22;8531;48.078;11.968;2023-12-20T00:15:00;5.30;99.90
16829;DHT22;8531;48.078;11.968;2023-12-20T00:17:26;5.30;99.90
16829;DHT22;8531;48.078;11.968;2023-12-20T00:19:51;5.30;99.90
16829;DHT22;8531;48.078;11.968;2023-12-20T00:22:17;5.30;99.90
16829;DHT22;8531;48.078;11.968;2023-12-20T00:24:43;5.20;99.90
16829;DHT22;8531;48.078;11.968;2023-12-20T00:27:08;5.20;99.90
16829;DHT22;8531;48.078;11.968;2023-12-20T00:29:34;5.20;99.90
16829;DHT22;8531;48.078;11.968;2023-12-20T00:31:59;5.20;99.90
16829;DHT22;8531;48.078;11.968;2023-12-20T00:34:25;5.20;99.90
16829;DHT22;8531;48.078;11.968;2023-12-20T00:36:51;5.20;99.90
16829;DHT22;8531;48.078;11.968;2023-12-20T00:39:16;5.30;99.90
16829;DHT22;8531;48.078;11.968;2023-12-20T00:41:42;5.30;99.90
16829;DHT22;8531;48.078;11.968;2023-12-20T00:44:08;5.30;99.90
16829;DHT22;8531;48.078;11.968;2023-12-20T00:46:33;5.40;99.90
16829;DHT22;8531;48.078;11.968;2023-12-20T00:48:59;5.30;99.90
16829;DHT22;8531;48.078;11.968;2023-12-20T00:51:25;5.30;99.90
16829;DHT22;8531;48.078;11.968;2023-12-20T00:53:51;5.30;99.90
16829;DHT22;8531;48.078;11.968;2023-12-20T00:56:20;5.30;99.90
16829;DHT22;8531;48.078;11.968;2023-12-20T00:58:46;5.30;99.90
16829;DHT22;8531;48.078;11.968;2023-12-20T01:01:11;5.30;99.90
16829;DHT22;8531;48.078;11.968;2023-12-20T01:03:38;5.40;99.90
16829;DHT22;8531;48.078;11.968;2023-12-20T01:06:04;5.40;99.90
16829;DHT22;8531;48.078;11.968;2023-12-20T01:08:30;5.50;99.90
16829;DHT22;8531;48.078;11.968;2023-12-20T01:10:56;5.40;99.90
16829;DHT22;8531;48.078;11.968;2023-12-20T01:13:22;5.30;99.90
16829;DHT22;8531;48.078;11.968;2023-12-20T01:15:47;5.20;99.90
16829;DHT22;8531;48.078;11.968;2023-12-20T01:18:13;5.30;99.90
16829;DHT22;8531;48.078;11.968;2023-12-20T01:20:39;5.30;99.90
16829;DHT22;8531;48.078;11.968;2023-12-20T01:23:05;5.20;99.90
16829;DHT22;8531;48.078;11.968;2023-12-20T01:25:31;5.20;99.90
16829;DHT22;8531;48.078;11.968;2023-12-20T01:27:56;5.30;99.90
16829;DHT22;8531;48.078;11.968;2023-12-20T01:30:22;5.30;99.90
16829;DHT22;8531;48.078;11.968;2023-12-20T01:32:47;5.40;99.90
16829;DHT22;8531;48.078;11.968;2023-12-20T01:35:13;5.40;99.90
16829;DHT22;8531;48.078;11.968;2023-12-20T01:37:39;5.40;99.90
16829;DHT22;8531;48.078;11.968;2023-12-20T01:40:05;5.50;99.90
16829;DHT22;8531;48.078;11.968;2023-12-20T01:42:31;5.50;99.90
16829;DHT22;8531;48.078;11.968;2023-12-20T01:44:56;5.50;99.90
16829;DHT22;8531;48.078;11.968;2023-12-20T01:47:22;5.60;99.90
16829;DHT22;8531;48.078;11.968;2023-12-20T01:49:49;5.60;99.90
16829;DHT22;8531;48.078;11.968;2023-12-20T01:52:14;5.50;99.90
16829;DHT22;8531;48.078;11.968;2023-12-20T01:54:42;5.50;99.90
16829;DHT22;8531;48.078;11.968;2023-12-20T01:57:08;5.50;99.90
16829;DHT22;8531;48.078;11.968;2023-12-20T01:59:34;5.60;99.90
16829;DHT22;8531;48.078;11.968;2023-12-20T02:02:00;5.60;99.90
16829;DHT22;8531;48.078;11.968;2023-12-20T02:04:26;5.70;99.90
16829;DHT22;8531;48.078;11.968;2023-12-20T02:06:52;5.70;99.90
16829;DHT22;8531;48.078;11.968;2023-12-20T02:09:18;5.70;99.90
16829;DHT22;8531;48.078;11.968;2023-12-20T02:11:44;5.80;99.90
16829;DHT22;8531;48.078;11.968;2023-12-20T02:14:10;5.70;99.90
16829;DHT22;8531;48.078;11.968;2023-12-20T02:16:36;5.80;99.90
16829;DHT22;8531;48.078;11.968;2023-12-20T02:19:03;5.80;99.90
16829;DHT22;8531;48.078;11.968;2023-12-20T02:21:32;5.80;99.90
16829;DHT22;8531;48.078;11.968;2023-12-20T02:23:59;5.70;99.90
16829;DHT22;8531;48.078;11.968;2023-12-20T02:26:25;5.60;99.90
16829;DHT22;8531;48.078;11.968;2023-12-20T02:28:50;5.50;99.90
16829;DHT22;8531;48.078;11.968;2023-12-20T02:31:16;5.50;99.90
16829;DHT22;8531;48.078;11.968;2023-12-20T02:33:41;5.50;99.90
16829;DHT22;8531;48.078;11.968;2023-12-20T02:36:07;5.50;99.90
16829;DHT22;8531;48.078;11.968;2023-12-20T02:38:33;5.50;99.90
16829;DHT22;8531;48.078;11.968;2023-12-20T02:40:59;5.50;99.90
16829;DHT22;8531;48.078;11.968;2023-12-20T02:43:25;5.60;99.90
16829;DHT22;8531;48.078;11.968;2023-12-20T02:45:50;5.60;99.90
16829;DHT22;8531;48.078;11.968;2023-12-20T02:48:16;5.60;99.90
16829;DHT22;8531;48.078;11.968;2023-12-20T02:50:42;5.60;99.90
16829;DHT22;8531;48.078;11.968;2023-12-20T02:53:07;5.60;99.90
16829;DHT22;8531;48.078;11.968;2023-12-20T02:55:33;5.60;99.90
16829;DHT22;8531;48.078;11.968;2023-12-20T02:57:59;5.70;99.90
16829;DHT22;8531;48.078;11.968;2023-12-20T03:00:24;5.60;99.90
16829;DHT22;8531;48.078;11.968;2023-12-20T03:02:50;5.60;99.90
16829;DHT22;8531;48.078;11.968;2023-12-20T03:05:16;5.60;99.90
16829;DHT22;8531;48.078;11.968;2023-12-20T03:07:42;5.50;99.90
16829;DHT22;8531;48.078;11.968;2023-12-20T03:10:08;5.50;99.90
16829;DHT22;8531;48.078;11.968;2023-12-20T03:12:34;5.60;99.90
16829;DHT22;8531;48.078;11.968;2023-12-20T03:15:00;5.60;99.90
16829;DHT22;8531;48.078;11.968;2023-12-20T03:17:26;5.70;99.90
16829;DHT22;8531;48.078;11.968;2023-12-20T03:19:51;5.70;99.90
16829;DHT22;8531;48.078;11.968;2023-12-20T03:22:17;5.70;99.90
16829;DHT22;8531;48.078;11.968;2023-12-20T03:24:42;5.70;99.90
16829;DHT22;8531;48.078;11.968;2023-12-20T03:27:08;5.80;99.90
16829;DHT22;8531;48.078;11.968;2023-12-20T03:29:34;5.70;99.90
16829;DHT22;8531;48.078;11.968;2023-12-20T03:31:59;5.80;99.90
16829;DHT22;8531;48.078;11.968;2023-12-20T03:34:26;5.80;99.90
16829;DHT22;8531;48.078;11.968;2023-12-20T03:36:52;5.80;99.90
16829;DHT22;8531;48.078;11.968;2023-12-20T03:39:17;5.80;99.90
16829;DHT22;8531;48.078;11.968;2023-12-20T03:41:43;5.80;99.90
16829;DHT22;8531;48.078;11.968;2023-12-20T03:44:09;5.90;99.90
16829;DHT22;8531;48.078;11.968;2023-12-20T03:46:34;5.90;99.90
16829;DHT22;8531;48.078;11.968;2023-12-20T03:49:00;5.90;99.90
16829;DHT22;8531;48.078;11.968;2023-12-20T03:51:26;5.90;99.90
16829;DHT22;8531;48.078;11.968;2023-12-20T03:53:51;6.00;99.90
16829;DHT22;8531;48.078;11.968;2023-12-20T03:56:17;6.00;99.90
16829;DHT22;8531;48.078;11.968;2023-12-20T03:58:42;6.00;99.90
16829;DHT22;8531;48.078;11.968;2023-12-20T04:01:11;6.00;99.90
16829;DHT22;8531;48.078;11.968;2023-12-20T04:03:38;6.00;99.90
16829;DHT22;8531;48.078;11.968;2023-12-20T04:06:04;6.10;99.90
16829;DHT22;8531;48.078;11.968;2023-12-20T04:08:30;6.10;99.90
16829;DHT22;8531;48.078;11.968;2023-12-20T04:10:55;6.20;99.90
16829;DHT22;8531;48.078;11.968;2023-12-20T04:13:21;6.20;99.90
16829;DHT22;8531;48.078;11.968;2023-12-20T04:15:47;6.20;99.90
16829;DHT22;8531;48.078;11.968;2023-12-20T04:18:13;6.30;99.90
16829;DHT22;8531;48.078;11.968;2023-12-20T04:20:39;6.30;99.90
16829;DHT22;8531;48.078;11.968;2023-12-20T04:23:04;6.30;99.90
16829;DHT22;8531;48.078;11.968;2023-12-20T04:25:30;6.30;99.90
16829;DHT22;8531;48.078;11.968;2023-12-20T04:27:55;6.30;99.90
16829;DHT22;8531;48.078;11.968;2023-12-20T04:30:21;6.40;99.90
16829;DHT22;8531;48.078;11.968;2023-12-20T04:32:47;6.40;99.90
16829;DHT22;8531;48.078;11.968;2023-12-20T04:35:12;6.40;99.90
16829;DHT22;8531;48.078;11.968;2023-12-20T04:37:38;6.40;99.90
16829;DHT22;8531;48.078;11.968;2023-12-20T04:40:04;6.40;99.90
16829;DHT22;8531;48.078;11.968;2023-12-20T04:42:31;6.40;99.90
16829;DHT22;8531;48.078;11.968;2023-12-20T04:44:56;6.30;99.90
16829;DHT22;8531;48.078;11.968;2023-12-20T04:47:22;6.30;99.90
16829;DHT22;8531;48.078;11.968;2023-12-20T04:49:48;6.40;99.90
16829;DHT22;8531;48.078;11.968;2023-12-20T04:52:14;6.30;99.90
16829;DHT22;8531;48.078;11.968;2023-12-20T04:54:40;6.30;99.90
16829;DHT22;8531;48.078;11.968;2023-12-20T04:57:05;6.40;99.90
16829;DHT22;8531;48.078;11.968;2023-12-20T04:59:31;6.40;99.90
16829;DHT22;8531;48.078;11.968;2023-12-20T05:01:57;6.40;99.90
16829;DHT22;8531;48.078;11.968;2023-12-20T05:04:23;6.40;99.90
16829;DHT22;8531;48.078;11.968;2023-12-20T05:06:48;6.50;99.90
16829;DHT22;8531;48.078;11.968;2023-12-20T05:09:15;6.50;99.90
16829;DHT22;8531;48.078;11.968;2023-12-20T05:11:41;6.60;99.90
16829;DHT22;8531;48.078;11.968;2023-12-20T05:14:07;6.60;99.90
16829;DHT22;8531;48.078;11.968;2023-12-20T05:16:33;6.60;99.90
16829;DHT22;8531;48.078;11.968;2023-12-20T05:18:58;6.70;99.90
16829;DHT22;8531;48.078;11.968;2023-12-20T05:21:26;6.70;99.90
16829;DHT22;8531;48.078;11.968;2023-12-20T05:23:52;6.70;99.90
16829;DHT22;8531;48.078;11.968;2023-12-20T05:26:18;6.70;99.90
16829;DHT22;8531;48.078;11.968;2023-12-20T05:28:44;6.80;99.90
16829;DHT22;8531;48.078;11.968;2023-12-20T05:31:09;6.80;99.90
16829;DHT22;8531;48.078;11.968;2023-12-20T05:33:35;6.80;99.90
16829;DHT22;8531;48.078;11.968;2023-12-20T05:36:01;6.70;99.90
16829;DHT22;8531;48.078;11.968;2023-12-20T05:38:26;6.70;99.90
16829;DHT22;8531;48.078;11.968;2023-12-20T05:40:52;6.60;99.90
16829;DHT22;8531;48.078;11.968;2023-12-20T05:43:18;6.60;99.90
16829;DHT22;8531;48.078;11.968;2023-12-20T05:45:43;6.60;99.90
16829;DHT22;8531;48.078;11.968;2023-12-20T05:48:09;6.50;99.90
16829;DHT22;8531;48.078;11.968;2023-12-20T05:50:35;6.50;99.90
16829;DHT22;8531;48.078;11.968;2023-12-20T05:53:00;6.40;99.90
16829;DHT22;8531;48.078;11.968;2023-12-20T05:55:26;6.40;99.90
16829;DHT22;8531;48.078;11.968;2023-12-20T05:57:52;6.30;99.90
16829;DHT22;8531;48.078;11.968;2023-12-20T06:00:18;6.30;99.90
16829;DHT22;8531;48.078;11.968;2023-12-20T06:02:43;6.30;99.90
16829;DHT22;8531;48.078;11.968;2023-12-20T06:05:09;6.20;99.90
16829;DHT22;8531;48.078;11.968;2023-12-20T06:07:35;6.20;99.90
16829;DHT22;8531;48.078;11.968;2023-12-20T06:10:01;6.20;99.90
16829;DHT22;8531;48.078;11.968;2023-12-20T06:12:26;6.20;99.90
16829;DHT22;8531;48.078;11.968;2023-12-20T06:14:54;6.20;99.90
16829;DHT22;8531;48.078;11.968;2023-12-20T06:17:19;6.10;99.90
16829;DHT22;8531;48.078;11.968;2023-12-20T06:19:45;6.10;99.90
16829;DHT22;8531;48.078;11.968;2023-12-20T06:22:14;6.00;99.90
16829;DHT22;8531;48.078;11.968;2023-12-20T06:24:39;6.00;99.90
16829;DHT22;8531;48.078;11.968;2023-12-20T06:27:05;6.00;99.90
16829;DHT22;8531;48.078;11.968;2023-12-20T06:29:31;6.00;99.90
16829;DHT22;8531;48.078;11.968;2023-12-20T06:31:56;5.90;99.90
16829;DHT22;8531;48.078;11.968;2023-12-20T06:34:22;5.90;99.90
16829;DHT22;8531;48.078;11.968;2023-12-20T06:36:48;5.80;99.90
16829;DHT22;8531;48.078;11.968;2023-12-20T06:39:13;5.80;99.90
16829;DHT22;8531;48.078;11.968;2023-12-20T06:41:39;5.80;99.90
16829;DHT22;8531;48.078;11.968;2023-12-20T06:44:05;5.80;99.90
16829;DHT22;8531;48.078;11.968;2023-12-20T06:46:31;5.70;99.90
16829;DHT22;8531;48.078;11.968;2023-12-20T06:48:57;5.70;99.90
16829;DHT22;8531;48.078;11.968;2023-12-20T06:51:22;5.60;99.90
16829;DHT22;8531;48.078;11.968;2023-12-20T06:53:51;5.60;99.90
16829;DHT22;8531;48.078;11.968;2023-12-20T06:56:17;5.50;99.90
16829;DHT22;8531;48.078;11.968;2023-12-20T06:58:43;5.50;99.90
16829;DHT22;8531;48.078;11.968;2023-12-20T07:01:12;5.50;99.90
16829;DHT22;8531;48.078;11.968;2023-12-20T07:03:38;5.50;99.90
16829;DHT22;8531;48.078;11.968;2023-12-20T07:06:05;5.40;99.90
16829;DHT22;8531;48.078;11.968;2023-12-20T07:08:31;5.40;99.90
16829;DHT22;8531;48.078;11.968;2023-12-20T07:10:56;5.40;99.90
16829;DHT22;8531;48.078;11.968;2023-12-20T07:13:22;5.30;99.90
16829;DHT22;8531;48.078;11.968;2023-12-20T07:15:48;5.30;99.90
16829;DHT22;8531;48.078;11.968;2023-12-20T07:18:14;5.20;99.90
16829;DHT22;8531;48.078;11.968;2023-12-20T07:20:39;5.20;99.90
16829;DHT22;8531;48.078;11.968;2023-12-20T07:23:05;5.10;99.90
16829;DHT22;8531;48.078;11.968;2023-12-20T07:25:31;5.10;99.90
16829;DHT22;8531;48.078;11.968;2023-12-20T07:27:59;5.10;99.90
16829;DHT22;8531;48.078;11.968;2023-12-20T07:30:25;5.00;99.90
16829;DHT22;8531;48.078;11.968;2023-12-20T07:32:50;5.00;99.90
16829;DHT22;8531;48.078;11.968;2023-12-20T07:35:18;5.00;99.90
16829;DHT22;8531;48.078;11.968;2023-12-20T07:37:43;5.10;99.90
16829;DHT22;8531;48.078;11.968;2023-12-20T07:40:10;5.10;99.90
16829;DHT22;8531;48.078;11.968;2023-12-20T07:42:36;5.10;99.90
16829;DHT22;8531;48.078;11.968;2023-12-20T07:45:01;5.00;99.90
16829;DHT22;8531;48.078;11.968;2023-12-20T07:47:27;5.00;99.90
16829;DHT22;8531;48.078;11.968;2023-12-20T07:49:53;5.00;99.90
16829;DHT22;8531;48.078;11.968;2023-12-20T07:52:19;5.00;99.90
16829;DHT22;8531;48.078;11.968;2023-12-20T07:54:45;5.00;99.90
16829;DHT22;8531;48.078;11.968;2023-12-20T07:57:11;5.00;99.90
16829;DHT22;8531;48.078;11.968;2023-12-20T07:59:37;5.00;99.90
16829;DHT22;8531;48.078;11.968;2023-12-20T08:02:03;5.00;99.90
16829;DHT22;8531;48.078;11.968;2023-12-20T08:04:29;5.10;99.90
16829;DHT22;8531;48.078;11.968;2023-12-20T08:06:54;5.00;99.90
16829;DHT22;8531;48.078;11.968;2023-12-20T08:09:21;5.00;99.90
16829;DHT22;8531;48.078;11.968;2023-12-20T08:11:47;5.00;99.90
16829;DHT22;8531;48.078;11.968;2023-12-20T08:14:13;4.90;99.90
16829;DHT22;8531;48.078;11.968;2023-12-20T08:16:39;5.00;99.90
16829;DHT22;8531;48.078;11.968;2023-12-20T08:19:05;5.00;99.90
16829;DHT22;8531;48.078;11.968;2023-12-20T08:21:31;4.90;99.90
16829;DHT22;8531;48.078;11.968;2023-12-20T08:23:56;5.00;99.90
16829;DHT22;8531;48.078;11.968;2023-12-20T08:26:22;5.00;99.90
16829;DHT22;8531;48.078;11.968;2023-12-20T08:28:49;5.00;99.90
16829;DHT22;8531;48.078;11.968;2023-12-20T08:31:16;5.00;99.90
16829;DHT22;8531;48.078;11.968;2023-12-20T08:33:44;5.00;99.90
16829;DHT22;8531;48.078;11.968;2023-12-20T08:36:10;5.00;99.90
16829;DHT22;8531;48.078;11.968;2023-12-20T08:38:36;5.00;99.90
16829;DHT22;8531;48.078;11.968;2023-12-20T08:41:02;5.00;99.90
16829;DHT22;8531;48.078;11.968;2023-12-20T08:43:30;5.10;99.90
16829;DHT22;8531;48.078;11.968;2023-12-20T08:45:56;5.00;99.90
16829;DHT22;8531;48.078;11.968;2023-12-20T08:48:22;5.00;99.90
16829;DHT22;8531;48.078;11.968;2023-12-20T08:50:47;5.10;99.90
16829;DHT22;8531;48.078;11.968;2023-12-20T08:53:15;5.00;99.90
16829;DHT22;8531;48.078;11.968;2023-12-20T08:55:42;5.10;99.90
16829;DHT22;8531;48.078;11.968;2023-12-20T08:58:07;5.00;99.90
16829;DHT22;8531;48.078;11.968;2023-12-20T09:00:34;5.00;99.90
16829;DHT22;8531;48.078;11.968;2023-12-20T09:03:00;5.00;99.90
16829;DHT22;8531;48.078;11.968;2023-12-20T09:05:26;5.10;99.90
16829;DHT22;8531;48.078;11.968;2023-12-20T09:07:52;5.00;99.90
16829;DHT22;8531;48.078;11.968;2023-12-20T09:10:17;5.10;99.90
16829;DHT22;8531;48.078;11.968;2023-12-20T09:12:49;5.10;99.90
16829;DHT22;8531;48.078;11.968;2023-12-20T09:15:15;5.10;99.90
16829;DHT22;8531;48.078;11.968;2023-12-20T09:17:41;5.00;99.90
16829;DHT22;8531;48.078;11.968;2023-12-20T09:20:07;5.00;99.90
16829;DHT22;8531;48.078;11.968;2023-12-20T09:22:34;5.00;99.90
16829;DHT22;8531;48.078;11.968;2023-12-20T09:25:00;5.10;99.90
16829;DHT22;8531;48.078;11.968;2023-12-20T09:27:27;5.10;99.90
16829;DHT22;8531;48.078;11.968;2023-12-20T09:29:53;5.10;99.90
16829;DHT22;8531;48.078;11.968;2023-12-20T09:32:19;5.10;99.90
16829;DHT22;8531;48.078;11.968;2023-12-20T09:34:47;5.20;99.90
16829;DHT22;8531;48.078;11.968;2023-12-20T09:37:13;5.20;99.90
16829;DHT22;8531;48.078;11.968;2023-12-20T09:39:39;5.20;99.90
16829;DHT22;8531;48.078;11.968;2023-12-20T09:42:05;5.20;99.90
16829;DHT22;8531;48.078;11.968;2023-12-20T09:44:32;5.20;99.90
16829;DHT22;8531;48.078;11.968;2023-12-20T09:47:05;5.20;99.90
16829;DHT22;8531;48.078;11.968;2023-12-20T09:49:32;5.20;99.90
16829;DHT22;8531;48.078;11.968;2023-12-20T09:52:00;5.20;99.90
16829;DHT22;8531;48.078;11.968;2023-12-20T09:54:27;5.30;99.90
16829;DHT22;8531;48.078;11.968;2023-12-20T09:56:53;5.20;99.90
16829;DHT22;8531;48.078;11.968;2023-12-20T09:59:19;5.20;99.90
16829;DHT22;8531;48.078;11.968;2023-12-20T10:01:45;5.20;99.90
16829;DHT22;8531;48.078;11.968;2023-12-20T10:04:13;5.20;99.90
16829;DHT22;8531;48.078;11.968;2023-12-20T10:06:42;5.30;99.90
16829;DHT22;8531;48.078;11.968;2023-12-20T10:09:09;5.30;99.90
16829;DHT22;8531;48.078;11.968;2023-12-20T10:11:36;5.30;99.90
16829;DHT22;8531;48.078;11.968;2023-12-20T10:14:03;5.30;99.90
16829;DHT22;8531;48.078;11.968;2023-12-20T10:16:29;5.30;99.90
16829;DHT22;8531;48.078;11.968;2023-12-20T10:18:56;5.30;99.90
16829;DHT22;8531;48.078;11.968;2023-12-20T10:21:25;5.30;99.90
16829;DHT22;8531;48.078;11.968;2023-12-20T10:23:53;5.30;99.90
16829;DHT22;8531;48.078;11.968;2023-12-20T10:26:20;5.30;99.90
16829;DHT22;8531;48.078;11.968;2023-12-20T10:28:56;5.30;99.90
16829;DHT22;8531;48.078;11.968;2023-12-20T10:31:29;5.30;99.90
16829;DHT22;8531;48.078;11.968;2023-12-20T10:33:59;5.30;99.90
16829;DHT22;8531;48.078;11.968;2023-12-20T10:36:29;5.20;99.90
16829;DHT22;8531;48.078;11.968;2023-12-20T10:38:56;5.30;99.90
16829;DHT22;8531;48.078;11.968;2023-12-20T10:41:26;5.30;99.90
16829;DHT22;8531;48.078;11.968;2023-12-20T10:43:58;5.40;99.90
16829;DHT22;8531;48.078;11.968;2023-12-20T10:46:25;5.30;99.90
16829;DHT22;8531;48.078;11.968;2023-12-20T10:48:53;5.30;99.90
16829;DHT22;8531;48.078;11.968;2023-12-20T10:51:20;5.40;99.90
16829;DHT22;8531;48.078;11.968;2023-12-20T10:53:49;5.40;99.90
16829;DHT22;8531;48.078;11.968;2023-12-20T10:56:17;5.40;99.90
16829;DHT22;8531;48.078;11.968;2023-12-20T10:58:49;5.40;99.90
16829;DHT22;8531;48.078;11.968;2023-12-20T11:01:16;5.50;99.90
16829;DHT22;8531;48.078;11.968;2023-12-20T11:03:49;5.50;99.90
16829;DHT22;8531;48.078;11.968;2023-12-20T11:06:31;5.50;99.90
16829;DHT22;8531;48.078;11.968;2023-12-20T11:09:20;5.50;99.90
16829;DHT22;8531;48.078;11.968;2023-12-20T11:17:10;5.60;99.90
16829;DHT22;8531;48.078;11.968;2023-12-20T11:22:29;5.60;99.90
16829;DHT22;8531;48.078;11.968;2023-12-20T11:25:05;5.60;99.90
16829;DHT22;8531;48.078;11.968;2023-12-20T11:27:32;5.70;99.90
16829;DHT22;8531;48.078;11.968;2023-12-20T11:29:58;5.70;99.90
16829;DHT22;8531;48.078;11.968;2023-12-20T11:34:57;5.70;99.90
16829;DHT22;8531;48.078;11.968;2023-12-20T11:37:32;5.70;99.90
16829;DHT22;8531;48.078;11.968;2023-12-20T11:40:06;5.70;99.90
16829;DHT22;8531;48.078;11.968;2023-12-20T11:42:43;5.70;99.90
16829;DHT22;8531;48.078;11.968;2023-12-20T11:45:20;5.70;99.90
16829;DHT22;8531;48.078;11.968;2023-12-20T11:47:48;5.70;99.90
16829;DHT22;8531;48.078;11.968;2023-12-20T11:50:17;5.70;99.90
16829;DHT22;8531;48.078;11.968;2023-12-20T11:52:43;5.70;99.90
16829;DHT22;8531;48.078;11.968;2023-12-20T11:55:09;5.70;99.90
16829;DHT22;8531;48.078;11.968;2023-12-20T11:57:36;5.70;99.90
16829;DHT22;8531;48.078;11.968;2023-12-20T12:00:03;5.70;99.90
16829;DHT22;8531;48.078;11.968;2023-12-20T12:02:30;5.70;99.90
16829;DHT22;8531;48.078;11.968;2023-12-20T12:04:55;5.80;99.90
16829;DHT22;8531;48.078;11.968;2023-12-20T12:07:22;5.80;99.90
16829;DHT22;8531;48.078;11.968;2023-12-20T12:09:48;5.80;99.90
16829;DHT22;8531;48.078;11.968;2023-12-20T12:12:14;5.80;99.90
16829;DHT22;8531;48.078;11.968;2023-12-20T12:14:40;5.80;99.90
16829;DHT22;8531;48.078;11.968;2023-12-20T12:17:12;5.80;99.90
16829;DHT22;8531;48.078;11.968;2023-12-20T12:19:39;5.80;99.90
16829;DHT22;8531;48.078;11.968;2023-12-20T12:22:12;5.80;99.90
16829;DHT22;8531;48.078;11.968;2023-12-20T12:24:46;5.80;99.90
16829;DHT22;8531;48.078;11.968;2023-12-20T12:27:13;5.90;99.90
16829;DHT22;8531;48.078;11.968;2023-12-20T12:29:39;5.80;99.90
16829;DHT22;8531;48.078;11.968;2023-12-20T12:32:06;5.80;99.90
16829;DHT22;8531;48.078;11.968;2023-12-20T12:34:33;5.80;99.90
16829;DHT22;8531;48.078;11.968;2023-12-20T12:37:00;5.90;99.90
16829;DHT22;8531;48.078;11.968;2023-12-20T12:39:26;5.90;99.90
16829;DHT22;8531;48.078;11.968;2023-12-20T12:41:52;5.90;99.90
16829;DHT22;8531;48.078;11.968;2023-12-20T12:44:18;6.00;99.90
16829;DHT22;8531;48.078;11.968;2023-12-20T12:46:46;6.00;99.90
16829;DHT22;8531;48.078;11.968;2023-12-20T12:49:13;6.00;99.90
16829;DHT22;8531;48.078;11.968;2023-12-20T12:51:38;6.00;99.90
16829;DHT22;8531;48.078;11.968;2023-12-20T12:54:04;5.90;99.90
16829;DHT22;8531;48.078;11.968;2023-12-20T12:56:30;6.00;99.90
16829;DHT22;8531;48.078;11.968;2023-12-20T12:58:56;5.90;99.90
16829;DHT22;8531;48.078;11.968;2023-12-20T13:01:22;5.90;99.90
16829;DHT22;8531;48.078;11.968;2023-12-20T13:03:47;5.90;99.90
16829;DHT22;8531;48.078;11.968;2023-12-20T13:06:13;5.90;99.90
16829;DHT22;8531;48.078;11.968;2023-12-20T13:08:39;5.80;99.90
16829;DHT22;8531;48.078;11.968;2023-12-20T13:11:05;5.80;99.90
16829;DHT22;8531;48.078;11.968;2023-12-20T13:13:31;5.80;99.90
16829;DHT22;8531;48.078;11.968;2023-12-20T13:15:57;5.80;99.90
16829;DHT22;8531;48.078;11.968;2023-12-20T13:18:23;5.80;99.90
16829;DHT22;8531;48.078;11.968;2023-12-20T13:20:49;5.80;99.90
16829;DHT22;8531;48.078;11.968;2023-12-20T13:23:15;5.80;99.90
16829;DHT22;8531;48.078;11.968;2023-12-20T13:25:41;5.80;99.90
16829;DHT22;8531;48.078;11.968;2023-12-20T13:28:07;5.80;99.90
16829;DHT22;8531;48.078;11.968;2023-12-20T13:30:34;5.80;99.90
16829;DHT22;8531;48.078;11.968;2023-12-20T13:32:59;5.80;99.90
16829;DHT22;8531;48.078;11.968;2023-12-20T13:35:25;5.90;99.90
16829;DHT22;8531;48.078;11.968;2023-12-20T13:37:51;5.90;99.90
16829;DHT22;8531;48.078;11.968;2023-12-20T13:40:17;5.90;99.90
16829;DHT22;8531;48.078;11.968;2023-12-20T13:42:43;5.90;99.90
16829;DHT22;8531;48.078;11.968;2023-12-20T13:45:09;5.80;99.90
16829;DHT22;8531;48.078;11.968;2023-12-20T13:47:35;5.80;99.90
16829;DHT22;8531;48.078;11.968;2023-12-20T13:50:01;5.80;99.90
16829;DHT22;8531;48.078;11.968;2023-12-20T13:52:27;5.60;99.90
16829;DHT22;8531;48.078;11.968;2023-12-20T13:54:53;5.50;99.90
16829;DHT22;8531;48.078;11.968;2023-12-20T13:57:19;5.40;99.90
16829;DHT22;8531;48.078;11.968;2023-12-20T13:59:44;5.30;99.90
16829;DHT22;8531;48.078;11.968;2023-12-20T14:02:10;5.30;99.90
16829;DHT22;8531;48.078;11.968;2023-12-20T14:04:36;5.20;99.90
16829;DHT22;8531;48.078;11.968;2023-12-20T14:07:01;5.20;99.90
16829;DHT22;8531;48.078;11.968;2023-12-20T14:09:28;5.20;99.90
16829;DHT22;8531;48.078;11.968;2023-12-20T14:11:53;5.10;99.90
16829;DHT22;8531;48.078;11.968;2023-12-20T14:14:20;5.10;99.90
16829;DHT22;8531;48.078;11.968;2023-12-20T14:16:45;5.10;99.90
16829;DHT22;8531;48.078;11.968;2023-12-20T14:19:12;5.00;99.90
16829;DHT22;8531;48.078;11.968;2023-12-20T14:21:38;4.90;99.90
16829;DHT22;8531;48.078;11.968;2023-12-20T14:24:03;4.80;99.90
16829;DHT22;8531;48.078;11.968;2023-12-20T14:26:30;4.90;99.90
16829;DHT22;8531;48.078;11.968;2023-12-20T14:28:56;4.90;99.90
16829;DHT22;8531;48.078;11.968;2023-12-20T14:31:22;4.90;99.90
16829;DHT22;8531;48.078;11.968;2023-12-20T14:33:50;4.80;99.90
16829;DHT22;8531;48.078;11.968;2023-12-20T14:36:16;4.80;99.90
16829;DHT22;8531;48.078;11.968;2023-12-20T14:38:43;4.80;99.90
16829;DHT22;8531;48.078;11.968;2023-12-20T14:41:09;4.70;99.90
16829;DHT22;8531;48.078;11.968;2023-12-20T14:43:35;4.80;99.90
16829;DHT22;8531;48.078;11.968;2023-12-20T14:46:01;4.70;99.90
16829;DHT22;8531;48.078;11.968;2023-12-20T14:48:26;4.80;99.90
16829;DHT22;8531;48.078;11.968;2023-12-20T14:50:55;4.70;99.90
16829;DHT22;8531;48.078;11.968;2023-12-20T14:53:21;4.70;99.90
16829;DHT22;8531;48.078;11.968;2023-12-20T14:55:46;4.70;99.90
16829;DHT22;8531;48.078;11.968;2023-12-20T14:58:12;4.70;99.90
16829;DHT22;8531;48.078;11.968;2023-12-20T15:00:40;4.80;99.90
16829;DHT22;8531;48.078;11.968;2023-12-20T15:03:05;4.80;99.90
16829;DHT22;8531;48.078;11.968;2023-12-20T15:05:32;4.80;99.90
16829;DHT22;8531;48.078;11.968;2023-12-20T15:07:58;4.80;99.90
16829;DHT22;8531;48.078;11.968;2023-12-20T15:10:23;4.80;99.90
16829;DHT22;8531;48.078;11.968;2023-12-20T15:12:49;4.80;99.90
16829;DHT22;8531;48.078;11.968;2023-12-20T15:15:15;4.90;99.90
16829;DHT22;8531;48.078;11.968;2023-12-20T15:17:41;4.80;99.90
16829;DHT22;8531;48.078;11.968;2023-12-20T15:20:09;4.80;99.90
16829;DHT22;8531;48.078;11.968;2023-12-20T15:22:35;4.80;99.90
16829;DHT22;8531;48.078;11.968;2023-12-20T15:25:02;4.80;99.90
16829;DHT22;8531;48.078;11.968;2023-12-20T15:27:29;4.90;99.90
16829;DHT22;8531;48.078;11.968;2023-12-20T15:29:54;4.80;99.90
16829;DHT22;8531;48.078;11.968;2023-12-20T15:32:21;4.80;99.90
16829;DHT22;8531;48.078;11.968;2023-12-20T15:34:48;4.80;99.90
16829;DHT22;8531;48.078;11.968;2023-12-20T15:37:14;4.70;99.90
16829;DHT22;8531;48.078;11.968;2023-12-20T15:39:41;4.80;99.90
16829;DHT22;8531;48.078;11.968;2023-12-20T15:42:08;4.80;99.90
16829;DHT22;8531;48.078;11.968;2023-12-20T15:44:33;4.80;99.90
16829;DHT22;8531;48.078;11.968;2023-12-20T15:46:59;4.70;99.90
16829;DHT22;8531;48.078;11.968;2023-12-20T15:49:25;4.70;99.90